Time;durP1;ratioP1;P1;durP2;ratioP2;P2;SDS_P1;SDS_P2;PMS_P1;PMS_P2;Temp;Humidity;BMP_temperature;BMP_pressure;BME280_temperature;BME280_humidity;BME280_pressure;Samples;Min_cycle;Max_cycle;Signal;HPM_P1;HPM_P2
2022/04/12 00:01:00;;;;;;;5.95;3.78;;;;;;;;;;5000964;28;20041;-84
2022/04/12 00:03:26;;;;;;;7.28;4.38;;;;;;;;;;5002109;28;20041;-86
2022/04/12 00:05:52;;;;;;;8.07;4.43;;;;;;;;;;5006416;28;20029;-81
2022/04/12 00:08:18;;;;;;;6.57;4.13;;;;;;;;;;5003818;28;20030;-87
2022/04/12 00:10:43;;;;;;;6.38;4.18;;;;;;;;;;5004673;28;20030;-86
2022/04/12 00:13:09;;;;;;;6.53;4.03;;;;;;;;;;5005504;28;20033;-86
2022/04/12 00:15:34;;;;;;;8.63;4.45;;;;;;;;;;5004143;28;20744;-86
2022/04/12 00:20:44;;;;;;;8.07;4.32;;;;;;;;;;5005429;28;20036;-83
2022/04/12 00:23:14;;;;;;;5.32;3.75;;;;;;;;;;5004322;28;20394;-81
2022/04/12 00:25:43;;;;;;;7.15;3.90;;;;;;;;;;5000531;28;20029;-82
2022/04/12 00:28:09;;;;;;;9.05;4.10;;;;;;;;;;5000051;28;20092;-85
2022/04/12 00:30:34;;;;;;;7.90;3.88;;;;;;;;;;5003241;28;20026;-81
2022/04/12 00:33:00;;;;;;;7.15;3.72;;;;;;;;;;5003609;28;20385;-86
2022/04/12 00:35:26;;;;;;;9.82;3.47;;;;;;;;;;5002757;28;20030;-84
2022/04/12 00:37:51;;;;;;;6.15;3.38;;;;;;;;;;5006162;28;20517;-85
2022/04/12 00:40:18;;;;;;;7.78;3.72;;;;;;;;;;5001072;28;20041;-84
2022/04/12 00:42:44;;;;;;;7.20;3.45;;;;;;;;;;5002223;28;20464;-84
2022/04/12 00:45:10;;;;;;;5.68;3.38;;;;;;;;;;5002108;28;20042;-82
2022/04/12 00:47:36;;;;;;;5.95;3.25;;;;;;;;;;5006246;28;20032;-79
2022/04/12 00:50:02;;;;;;;5.93;3.47;;;;;;;;;;5005157;28;20537;-82
2022/04/12 00:52:28;;;;;;;5.63;3.13;;;;;;;;;;4998013;28;20033;-84
2022/04/12 00:54:54;;;;;;;6.65;3.30;;;;;;;;;;5006016;28;20025;-80
2022/04/12 00:57:20;;;;;;;6.28;3.30;;;;;;;;;;5008511;28;20088;-81
2022/04/12 00:59:45;;;;;;;5.80;3.08;;;;;;;;;;4997133;28;20116;-81
2022/04/12 01:02:11;;;;;;;4.95;3.00;;;;;;;;;;5003434;28;20034;-85
2022/04/12 01:04:37;;;;;;;6.85;3.38;;;;;;;;;;5001407;28;20112;-86
2022/04/12 01:07:03;;;;;;;6.50;3.58;;;;;;;;;;4996717;28;20022;-84
2022/04/12 01:09:29;;;;;;;7.28;3.03;;;;;;;;;;5019027;28;20044;-81
2022/04/12 01:11:56;;;;;;;6.43;3.50;;;;;;;;;;5012823;28;20603;-81
2022/04/12 01:14:23;;;;;;;6.53;3.45;;;;;;;;;;5001525;28;20053;-80
2022/04/12 01:16:49;;;;;;;4.93;3.05;;;;;;;;;;5002706;28;20037;-84
2022/04/12 01:19:15;;;;;;;5.90;3.30;;;;;;;;;;5011258;28;20088;-85
2022/04/12 01:21:51;;;;;;;5.45;3.13;;;;;;;;;;5000111;28;20030;-81
2022/04/12 01:24:16;;;;;;;6.63;3.42;;;;;;;;;;5000985;28;20022;-84
2022/04/12 01:26:42;;;;;;;5.35;3.30;;;;;;;;;;5001351;28;20030;-84
2022/04/12 01:29:08;;;;;;;6.00;3.58;;;;;;;;;;4999311;28;20085;-80
2022/04/12 01:31:33;;;;;;;6.15;3.38;;;;;;;;;;5005010;28;20033;-81
2022/04/12 01:33:58;;;;;;;6.65;2.95;;;;;;;;;;4998044;28;20042;-83
2022/04/12 01:36:24;;;;;;;5.68;3.22;;;;;;;;;;5001782;28;20022;-81
2022/04/12 01:38:49;;;;;;;5.05;3.00;;;;;;;;;;5003707;28;20034;-81
2022/04/12 01:41:14;;;;;;;4.95;3.22;;;;;;;;;;5001179;28;20089;-85
2022/04/12 01:43:40;;;;;;;6.35;3.70;;;;;;;;;;5003547;28;20041;-81
2022/04/12 01:46:05;;;;;;;5.07;3.05;;;;;;;;;;5001115;28;20041;-85
2022/04/12 01:48:31;;;;;;;7.72;3.38;;;;;;;;;;4998124;28;20026;-85
2022/04/12 01:50:56;;;;;;;5.40;3.22;;;;;;;;;;5010434;28;20033;-81
2022/04/12 01:53:22;;;;;;;6.00;3.45;;;;;;;;;;5000102;28;20493;-84
2022/04/12 01:55:47;;;;;;;8.73;3.40;;;;;;;;;;5001623;28;20029;-85
2022/04/12 01:58:12;;;;;;;5.75;3.17;;;;;;;;;;5000707;28;20041;-84
2022/04/12 02:00:38;;;;;;;6.18;3.47;;;;;;;;;;5004380;28;20029;-85
2022/04/12 02:03:04;;;;;;;6.60;3.25;;;;;;;;;;5003641;28;21206;-81
2022/04/12 02:05:29;;;;;;;5.93;3.40;;;;;;;;;;5001034;28;20041;-84
2022/04/12 02:07:55;;;;;;;6.57;3.33;;;;;;;;;;5003389;28;20025;-81
2022/04/12 02:10:22;;;;;;;6.15;3.70;;;;;;;;;;5004467;28;20029;-85
2022/04/12 02:12:50;;;;;;;6.93;3.33;;;;;;;;;;5004629;28;20064;-79
2022/04/12 02:15:16;;;;;;;6.32;3.58;;;;;;;;;;5002334;28;20022;-85
2022/04/12 02:17:41;;;;;;;5.30;3.30;;;;;;;;;;5019581;28;20492;-80
2022/04/12 02:20:07;;;;;;;6.05;3.70;;;;;;;;;;5004311;28;20030;-82
2022/04/12 02:22:33;;;;;;;5.88;3.60;;;;;;;;;;5002485;28;20065;-80
2022/04/12 02:24:59;;;;;;;6.55;3.42;;;;;;;;;;5006734;28;20030;-85
2022/04/12 02:27:24;;;;;;;6.18;3.50;;;;;;;;;;5004018;28;20048;-86
2022/04/12 02:29:49;;;;;;;6.65;3.75;;;;;;;;;;5003407;28;20489;-84
2022/04/12 02:32:14;;;;;;;7.50;3.75;;;;;;;;;;5002308;28;21878;-81
2022/04/12 02:34:40;;;;;;;6.32;3.58;;;;;;;;;;5003844;28;20030;-86
2022/04/12 02:37:05;;;;;;;5.90;3.33;;;;;;;;;;5003253;28;20124;-85
2022/04/12 02:39:31;;;;;;;6.82;3.25;;;;;;;;;;5001917;28;20060;-85
2022/04/12 02:41:56;;;;;;;6.82;3.83;;;;;;;;;;5002574;28;20037;-80
2022/04/12 02:44:22;;;;;;;7.60;4.00;;;;;;;;;;5001128;28;20152;-80
2022/04/12 02:46:47;;;;;;;8.30;4.00;;;;;;;;;;5003257;28;20033;-84
2022/04/12 02:49:13;;;;;;;7.07;3.80;;;;;;;;;;5005775;28;20029;-84
2022/04/12 02:51:38;;;;;;;6.65;3.80;;;;;;;;;;5002881;28;20053;-86
2022/04/12 02:54:04;;;;;;;7.88;3.85;;;;;;;;;;5001719;28;20112;-80
2022/04/12 02:56:29;;;;;;;7.28;3.42;;;;;;;;;;5005687;28;20030;-79
2022/04/12 02:58:55;;;;;;;6.78;3.72;;;;;;;;;;5003879;28;20084;-80
2022/04/12 03:01:20;;;;;;;7.57;3.40;;;;;;;;;;5000299;28;22354;-84
2022/04/12 03:03:46;;;;;;;8.02;4.00;;;;;;;;;;5000386;28;20030;-79
2022/04/12 03:06:11;;;;;;;6.57;3.33;;;;;;;;;;5004171;28;20553;-85
2022/04/12 03:08:36;;;;;;;6.72;3.70;;;;;;;;;;5007556;28;20060;-85
2022/04/12 03:11:02;;;;;;;6.80;3.60;;;;;;;;;;5007138;28;20095;-85
2022/04/12 03:13:27;;;;;;;6.95;3.97;;;;;;;;;;5017930;28;20041;-85
2022/04/12 03:15:53;;;;;;;7.43;3.88;;;;;;;;;;5004106;28;20470;-85
2022/04/12 03:18:18;;;;;;;8.23;3.90;;;;;;;;;;5005235;28;20056;-85
2022/04/12 03:20:44;;;;;;;8.23;4.28;;;;;;;;;;5003214;28;20037;-85
2022/04/12 03:23:09;;;;;;;8.70;3.65;;;;;;;;;;5002553;28;21696;-84
2022/04/12 03:25:35;;;;;;;7.25;3.95;;;;;;;;;;5005839;28;20053;-85
2022/04/12 03:28:01;;;;;;;8.95;3.42;;;;;;;;;;5004430;28;20041;-86
2022/04/12 03:30:26;;;;;;;7.07;3.70;;;;;;;;;;5004986;28;20132;-86
2022/04/12 03:32:52;;;;;;;6.38;3.72;;;;;;;;;;5000212;28;20088;-85
2022/04/12 03:35:17;;;;;;;7.47;4.15;;;;;;;;;;5007972;28;20100;-80
2022/04/12 03:37:42;;;;;;;7.32;3.63;;;;;;;;;;5002906;28;20069;-84
2022/04/12 03:40:09;;;;;;;7.72;3.88;;;;;;;;;;5002612;28;20037;-81
2022/04/12 03:42:34;;;;;;;7.68;4.45;;;;;;;;;;5003660;28;20030;-85
2022/04/12 03:45:00;;;;;;;7.28;3.72;;;;;;;;;;5001983;28;20057;-86
2022/04/12 03:47:25;;;;;;;6.30;3.67;;;;;;;;;;5001870;28;20030;-80
2022/04/12 03:49:50;;;;;;;6.95;3.58;;;;;;;;;;5002415;28;20120;-82
2022/04/12 03:52:16;;;;;;;7.28;3.67;;;;;;;;;;5001359;28;20030;-79
2022/04/12 03:54:41;;;;;;;7.15;3.70;;;;;;;;;;5003294;28;20034;-82
2022/04/12 03:57:06;;;;;;;7.05;4.00;;;;;;;;;;5001876;28;20052;-85
2022/04/12 03:59:32;;;;;;;6.72;3.67;;;;;;;;;;5001131;28;20512;-80
2022/04/12 04:01:57;;;;;;;7.53;3.97;;;;;;;;;;5001891;28;20037;-81
2022/04/12 04:04:22;;;;;;;6.25;3.65;;;;;;;;;;4999537;28;20032;-81
2022/04/12 04:06:48;;;;;;;6.75;3.60;;;;;;;;;;5001064;28;20037;-84
2022/04/12 04:09:13;;;;;;;6.68;3.95;;;;;;;;;;5000853;28;20029;-84
2022/04/12 04:11:38;;;;;;;7.40;4.35;;;;;;;;;;5003820;28;20037;-82
2022/04/12 04:14:05;;;;;;;7.03;3.97;;;;;;;;;;5000281;28;20120;-82
2022/04/12 04:16:31;;;;;;;6.88;4.30;;;;;;;;;;5004247;28;20116;-79
2022/04/12 04:18:56;;;;;;;8.02;4.20;;;;;;;;;;5004403;28;20128;-85
2022/04/12 04:21:21;;;;;;;6.82;4.03;;;;;;;;;;5003861;28;20037;-80
2022/04/12 04:23:46;;;;;;;8.95;4.40;;;;;;;;;;4998952;28;20829;-80
2022/04/12 04:26:12;;;;;;;7.82;4.05;;;;;;;;;;5002507;28;20030;-87
2022/04/12 04:28:39;;;;;;;7.80;4.18;;;;;;;;;;5003322;28;20753;-84
2022/04/12 04:31:04;;;;;;;6.65;3.60;;;;;;;;;;5004011;28;20417;-85
2022/04/12 04:33:30;;;;;;;8.73;4.70;;;;;;;;;;5005068;28;20040;-84
2022/04/12 04:35:55;;;;;;;6.82;4.05;;;;;;;;;;5002482;28;20034;-84
2022/04/12 04:38:21;;;;;;;7.40;4.28;;;;;;;;;;5002197;28;20065;-80
2022/04/12 04:40:46;;;;;;;7.65;4.18;;;;;;;;;;5001127;28;20172;-84
2022/04/12 04:43:11;;;;;;;8.20;4.00;;;;;;;;;;5001411;28;20129;-86
2022/04/12 04:45:37;;;;;;;7.38;4.03;;;;;;;;;;5003666;28;20085;-85
2022/04/12 04:48:04;;;;;;;6.70;3.72;;;;;;;;;;5002338;28;20251;-80
2022/04/12 04:50:33;;;;;;;7.88;3.90;;;;;;;;;;5001682;28;20136;-79
2022/04/12 04:53:00;;;;;;;6.75;3.90;;;;;;;;;;5003171;28;20041;-85
2022/04/12 04:55:26;;;;;;;8.38;4.22;;;;;;;;;;5002213;28;20072;-84
2022/04/12 04:57:57;;;;;;;7.38;4.32;;;;;;;;;;5001947;28;20030;-87
2022/04/12 05:00:25;;;;;;;6.90;3.97;;;;;;;;;;5002117;28;20026;-85
2022/04/12 05:02:52;;;;;;;8.10;4.20;;;;;;;;;;5001077;28;20551;-86
2022/04/12 05:05:18;;;;;;;6.75;3.90;;;;;;;;;;5001316;28;20038;-81
2022/04/12 05:07:49;;;;;;;6.63;4.15;;;;;;;;;;5003017;28;20040;-81
2022/04/12 05:10:17;;;;;;;7.32;4.40;;;;;;;;;;5001687;28;20536;-84
2022/04/12 05:12:42;;;;;;;6.82;4.03;;;;;;;;;;4999818;28;20032;-84
2022/04/12 05:15:08;;;;;;;9.48;4.13;;;;;;;;;;4999744;28;20021;-87
2022/04/12 05:17:34;;;;;;;7.63;4.28;;;;;;;;;;5005286;28;20545;-84
2022/04/12 05:19:59;;;;;;;6.70;3.88;;;;;;;;;;5005151;28;20033;-84
2022/04/12 05:22:26;;;;;;;7.97;4.43;;;;;;;;;;5000264;28;20062;-83
2022/04/12 05:24:52;;;;;;;7.53;3.75;;;;;;;;;;5001705;28;20055;-81
2022/04/12 05:27:19;;;;;;;7.22;4.05;;;;;;;;;;5005342;28;20092;-86
2022/04/12 05:29:54;;;;;;;8.77;4.40;;;;;;;;;;5003661;28;20025;-85
2022/04/12 05:32:19;;;;;;;8.18;4.30;;;;;;;;;;5014907;28;20478;-80
2022/04/12 05:34:45;;;;;;;6.78;4.18;;;;;;;;;;5009094;28;20022;-85
2022/04/12 05:37:11;;;;;;;9.13;4.25;;;;;;;;;;4997396;28;20070;-85
2022/04/12 05:39:36;;;;;;;8.80;4.20;;;;;;;;;;5005287;28;20065;-81
2022/04/12 05:42:02;;;;;;;7.80;4.40;;;;;;;;;;5003781;28;20037;-81
2022/04/12 05:44:28;;;;;;;8.43;4.65;;;;;;;;;;5001785;28;20045;-84
2022/04/12 05:46:54;;;;;;;7.25;4.47;;;;;;;;;;5000871;28;20535;-86
2022/04/12 05:49:20;;;;;;;7.15;4.68;;;;;;;;;;5012841;28;20063;-84
2022/04/12 05:51:46;;;;;;;7.40;4.70;;;;;;;;;;4999079;28;20112;-84
2022/04/12 05:54:11;;;;;;;12.07;4.90;;;;;;;;;;5004749;28;20025;-81
2022/04/12 05:56:36;;;;;;;10.95;5.28;;;;;;;;;;5004523;28;20021;-80
2022/04/12 05:59:01;;;;;;;7.50;4.53;;;;;;;;;;5011310;28;20131;-81
2022/04/12 06:01:27;;;;;;;8.18;4.57;;;;;;;;;;5007100;28;20022;-85
2022/04/12 06:03:52;;;;;;;8.25;4.85;;;;;;;;;;5006405;28;20125;-84
2022/04/12 06:06:18;;;;;;;9.73;4.50;;;;;;;;;;5003653;28;20029;-85
2022/04/12 06:08:43;;;;;;;8.00;4.93;;;;;;;;;;5001883;28;20394;-84
2022/04/12 06:11:08;;;;;;;9.50;4.80;;;;;;;;;;5002564;28;20029;-84
2022/04/12 06:13:34;;;;;;;9.93;4.85;;;;;;;;;;5002717;28;20496;-85
2022/04/12 06:15:59;;;;;;;8.90;4.70;;;;;;;;;;5006541;28;20034;-81
2022/04/12 06:18:24;;;;;;;7.93;4.75;;;;;;;;;;5008173;28;20038;-83
2022/04/12 06:20:50;;;;;;;8.07;4.70;;;;;;;;;;5008528;28;20037;-81
2022/04/12 06:23:17;;;;;;;8.63;5.00;;;;;;;;;;5003360;28;20060;-79
2022/04/12 06:25:43;;;;;;;11.07;5.22;;;;;;;;;;5008855;28;20026;-84
2022/04/12 06:28:08;;;;;;;9.13;5.00;;;;;;;;;;5023132;28;20385;-84
2022/04/12 06:30:34;;;;;;;8.77;5.15;;;;;;;;;;5013168;28;20441;-86
2022/04/12 06:32:59;;;;;;;8.77;4.85;;;;;;;;;;5009577;28;20033;-85
2022/04/12 06:35:24;;;;;;;9.45;5.20;;;;;;;;;;5012543;28;20393;-77
2022/04/12 06:37:56;;;;;;;8.30;5.07;;;;;;;;;;5009622;28;20033;-87
2022/04/12 06:40:22;;;;;;;8.80;5.20;;;;;;;;;;5013094;28;20137;-86
2022/04/12 06:42:48;;;;;;;8.98;4.93;;;;;;;;;;5013369;28;20321;-86
2022/04/12 06:45:14;;;;;;;9.38;5.20;;;;;;;;;;5011545;28;20034;-79
2022/04/12 06:47:40;;;;;;;8.40;5.05;;;;;;;;;;5014119;28;20030;-86
2022/04/12 06:50:06;;;;;;;7.97;4.90;;;;;;;;;;5012824;28;20061;-79
2022/04/12 06:52:32;;;;;;;8.55;5.25;;;;;;;;;;5014158;28;20474;-79
2022/04/12 06:54:58;;;;;;;9.73;5.05;;;;;;;;;;5012413;28;20053;-79
2022/04/12 06:57:24;;;;;;;10.77;5.30;;;;;;;;;;5015197;28;20037;-85
2022/04/12 06:59:51;;;;;;;9.93;5.18;;;;;;;;;;5013316;28;20057;-85
2022/04/12 07:02:17;;;;;;;7.57;5.13;;;;;;;;;;5007723;28;20080;-85
2022/04/12 07:04:42;;;;;;;9.15;5.72;;;;;;;;;;5014933;28;20470;-79
2022/04/12 07:07:07;;;;;;;8.50;5.40;;;;;;;;;;5009776;28;20025;-78
2022/04/12 07:09:33;;;;;;;9.65;5.57;;;;;;;;;;5012102;28;20033;-78
2022/04/12 07:11:59;;;;;;;9.35;5.78;;;;;;;;;;5014598;28;20021;-79
2022/04/12 07:14:26;;;;;;;8.95;5.22;;;;;;;;;;5013136;28;20113;-85
2022/04/12 07:16:52;;;;;;;8.75;5.20;;;;;;;;;;5015024;28;20044;-78
2022/04/12 07:19:17;;;;;;;9.05;5.45;;;;;;;;;;5011419;28;20029;-79
2022/04/12 07:21:42;;;;;;;8.48;5.72;;;;;;;;;;5011129;28;20421;-80
2022/04/12 07:24:09;;;;;;;8.38;5.32;;;;;;;;;;5012395;28;20041;-78
2022/04/12 07:26:36;;;;;;;8.40;5.60;;;;;;;;;;5011879;28;20065;-85
2022/04/12 07:29:03;;;;;;;9.65;5.78;;;;;;;;;;5012177;28;20092;-78
2022/04/12 07:31:28;;;;;;;9.27;5.72;;;;;;;;;;5011963;28;20486;-85
2022/04/12 07:33:54;;;;;;;10.18;5.68;;;;;;;;;;5014711;28;20033;-79
2022/04/12 07:36:20;;;;;;;7.38;4.88;;;;;;;;;;5011550;28;20025;-79
2022/04/12 07:38:48;;;;;;;8.10;5.18;;;;;;;;;;5009987;28;20033;-85
2022/04/12 07:41:13;;;;;;;8.65;5.63;;;;;;;;;;5008314;28;20033;-86
2022/04/12 07:43:39;;;;;;;9.32;5.63;;;;;;;;;;5013163;28;20046;-79
2022/04/12 07:46:04;;;;;;;8.48;4.93;;;;;;;;;;5010712;28;20024;-87
2022/04/12 07:48:30;;;;;;;7.07;4.60;;;;;;;;;;5011546;28;20031;-79
2022/04/12 07:50:56;;;;;;;8.35;5.05;;;;;;;;;;5009307;28;20559;-86
2022/04/12 07:53:21;;;;;;;7.68;5.10;;;;;;;;;;5012456;28;20105;-86
2022/04/12 07:55:47;;;;;;;7.00;4.75;;;;;;;;;;5010027;28;20018;-83
2022/04/12 07:58:14;;;;;;;8.80;4.75;;;;;;;;;;5013477;28;20076;-84
2022/04/12 08:00:40;;;;;;;8.40;5.22;;;;;;;;;;5006784;28;20026;-78
2022/04/12 08:03:05;;;;;;;9.70;4.60;;;;;;;;;;5015515;28;20076;-85
2022/04/12 08:05:33;;;;;;;8.75;4.93;;;;;;;;;;5014061;28;20022;-79
2022/04/12 08:07:58;;;;;;;10.25;4.95;;;;;;;;;;5012876;28;20061;-87
2022/04/12 08:10:24;;;;;;;8.02;5.13;;;;;;;;;;5012149;28;20474;-81
2022/04/12 08:12:52;;;;;;;7.22;5.07;;;;;;;;;;5015221;28;20430;-81
2022/04/12 08:15:18;;;;;;;8.50;5.40;;;;;;;;;;5007840;28;20022;-86
2022/04/12 08:17:43;;;;;;;9.02;5.53;;;;;;;;;;5008512;28;20032;-84
2022/04/12 08:20:09;;;;;;;7.45;5.03;;;;;;;;;;5010116;28;20022;-79
2022/04/12 08:22:36;;;;;;;7.70;4.82;;;;;;;;;;5010314;28;20084;-77
2022/04/12 08:25:02;;;;;;;7.10;3.83;;;;;;;;;;5011143;28;20018;-83
2022/04/12 08:27:28;;;;;;;6.57;4.53;;;;;;;;;;5010339;28;20072;-78
2022/04/12 08:29:53;;;;;;;6.30;4.13;;;;;;;;;;5005404;28;20030;-84
2022/04/12 08:32:19;;;;;;;8.40;4.40;;;;;;;;;;5015171;28;20025;-85
2022/04/12 08:34:45;;;;;;;8.65;4.10;;;;;;;;;;5013824;28;20038;-85
2022/04/12 08:37:11;;;;;;;6.90;4.57;;;;;;;;;;5012876;28;20377;-87
2022/04/12 08:39:37;;;;;;;7.18;4.45;;;;;;;;;;5005434;28;20060;-80
2022/04/12 08:42:04;;;;;;;6.75;4.15;;;;;;;;;;5010538;28;20550;-79
2022/04/12 08:44:30;;;;;;;7.15;4.13;;;;;;;;;;5012413;28;20053;-85
2022/04/12 08:46:56;;;;;;;7.07;4.35;;;;;;;;;;5010075;28;20030;-85
2022/04/12 08:49:26;;;;;;;10.48;3.90;;;;;;;;;;5011456;28;20108;-84
2022/04/12 08:51:53;;;;;;;5.93;3.90;;;;;;;;;;5006395;28;20029;-79
2022/04/12 08:54:19;;;;;;;6.97;3.88;;;;;;;;;;5006939;28;20150;-79
2022/04/12 08:56:48;;;;;;;6.70;3.88;;;;;;;;;;5010458;28;20029;-86
2022/04/12 08:59:13;;;;;;;5.43;3.70;;;;;;;;;;5009844;28;20053;-81
2022/04/12 09:01:39;;;;;;;5.07;3.40;;;;;;;;;;5011135;28;20029;-80
2022/04/12 09:04:05;;;;;;;7.45;3.67;;;;;;;;;;5009703;28;20027;-80
2022/04/12 09:06:30;;;;;;;6.35;3.40;;;;;;;;;;5010586;28;20044;-80
2022/04/12 09:09:10;;;;;;;6.70;3.72;;;;;;;;;;5009057;28;20061;-86
2022/04/12 09:11:35;;;;;;;6.78;3.80;;;;;;;;;;5010313;28;20025;-79
2022/04/12 09:14:01;;;;;;;4.13;3.03;;;;;;;;;;5009637;28;20045;-80
2022/04/12 09:16:28;;;;;;;6.05;3.33;;;;;;;;;;5012110;28;20022;-79
2022/04/12 09:18:53;;;;;;;4.35;3.05;;;;;;;;;;5006724;28;20029;-79
2022/04/12 09:21:22;;;;;;;6.57;3.30;;;;;;;;;;5013026;28;20125;-80
2022/04/12 09:23:49;;;;;;;6.07;3.03;;;;;;;;;;5007562;28;20093;-80
2022/04/12 09:26:25;;;;;;;6.47;3.67;;;;;;;;;;5007341;28;20076;-79
2022/04/12 09:28:56;;;;;;;5.28;3.17;;;;;;;;;;5007505;28;20042;-85
2022/04/12 09:31:22;;;;;;;5.75;3.45;;;;;;;;;;5009814;28;20048;-80
2022/04/12 09:33:49;;;;;;;6.07;3.83;;;;;;;;;;5008390;28;20022;-81
2022/04/12 09:36:15;;;;;;;6.80;4.35;;;;;;;;;;5011478;28;20389;-80
2022/04/12 09:38:42;;;;;;;5.75;3.63;;;;;;;;;;5010261;28;20025;-78
2022/04/12 09:41:10;;;;;;;8.38;4.10;;;;;;;;;;5009917;28;20087;-78
2022/04/12 09:43:41;;;;;;;7.45;3.75;;;;;;;;;;5021281;28;20054;-80
2022/04/12 09:46:07;;;;;;;6.45;3.78;;;;;;;;;;5008075;28;20026;-80
2022/04/12 09:48:34;;;;;;;5.60;3.95;;;;;;;;;;5008267;28;20033;-85
2022/04/12 09:51:00;;;;;;;7.28;4.00;;;;;;;;;;5009227;28;20038;-86
2022/04/12 09:53:40;;;;;;;5.97;3.50;;;;;;;;;;5010870;28;20466;-82
2022/04/12 09:56:26;;;;;;;5.95;3.78;;;;;;;;;;5006706;28;20018;-86
2022/04/12 09:58:53;;;;;;;6.25;3.40;;;;;;;;;;5007953;28;20084;-85
2022/04/12 10:01:20;;;;;;;7.00;4.10;;;;;;;;;;5007916;28;20029;-80
2022/04/12 10:03:54;;;;;;;6.30;3.63;;;;;;;;;;5008218;28;20067;-82
2022/04/12 10:06:23;;;;;;;5.50;3.00;;;;;;;;;;5007795;28;20030;-82
2022/04/12 10:08:55;;;;;;;5.07;2.85;;;;;;;;;;5005700;28;20597;-81
2022/04/12 10:11:22;;;;;;;4.38;2.72;;;;;;;;;;5007194;28;20103;-86
2022/04/12 10:13:48;;;;;;;5.38;2.65;;;;;;;;;;5006747;28;20120;-80
2022/04/12 10:16:20;;;;;;;7.45;3.08;;;;;;;;;;5009916;28;20022;-84
2022/04/12 10:18:45;;;;;;;5.88;3.28;;;;;;;;;;5011141;28;20470;-80
2022/04/12 10:21:12;;;;;;;5.43;2.83;;;;;;;;;;5005330;28;20033;-85
2022/04/12 10:23:59;;;;;;;5.05;2.90;;;;;;;;;;5007673;28;20482;-85
2022/04/12 10:26:27;;;;;;;7.22;3.00;;;;;;;;;;5007524;28;20585;-86
2022/04/12 10:28:54;;;;;;;6.80;3.20;;;;;;;;;;5008590;28;20282;-84
2022/04/12 10:31:25;;;;;;;7.78;3.10;;;;;;;;;;5009918;28;20512;-84
2022/04/12 10:34:11;;;;;;;5.55;2.95;;;;;;;;;;5008790;28;20036;-80
2022/04/12 10:36:55;;;;;;;4.20;2.50;;;;;;;;;;5009239;28;20032;-85
2022/04/12 10:39:49;;;;;;;5.78;2.90;;;;;;;;;;5010929;28;20029;-85
2022/04/12 10:42:29;;;;;;;7.07;2.88;;;;;;;;;;5010077;28;20043;-81
2022/04/12 10:44:56;;;;;;;5.82;2.28;;;;;;;;;;5010191;28;20050;-81
2022/04/12 10:47:29;;;;;;;5.28;2.20;;;;;;;;;;5012520;28;20034;-80
2022/04/12 10:49:57;;;;;;;;;;;;;;;;;;5013999;28;20399;-80
2022/04/12 10:52:42;;;;;;;7.82;2.67;;;;;;;;;;5014521;28;19909;-81
2022/04/12 10:55:12;;;;;;;5.03;2.80;;;;;;;;;;5011948;28;20459;-85
2022/04/12 10:57:39;;;;;;;4.22;1.95;;;;;;;;;;5010723;28;20033;-84
2022/04/12 11:00:09;;;;;;;4.80;2.53;;;;;;;;;;5010829;28;20124;-85
2022/04/12 11:02:43;;;;;;;6.32;2.85;;;;;;;;;;5010915;28;20403;-83
2022/04/12 11:05:37;;;;;;;5.10;2.63;;;;;;;;;;5011247;28;20029;-77
2022/04/12 11:08:06;;;;;;;4.68;2.50;;;;;;;;;;5011310;28;20034;-83
2022/04/12 11:10:32;;;;;;;7.78;2.55;;;;;;;;;;5011333;28;20489;-81
2022/04/12 11:13:07;;;;;;;4.93;2.60;;;;;;;;;;5012650;28;20096;-86
2022/04/12 11:15:34;;;;;;;4.60;2.17;;;;;;;;;;5011749;28;20428;-83
2022/04/12 11:18:16;;;;;;;8.05;2.72;;;;;;;;;;5010480;28;20037;-81
2022/04/12 11:20:59;;;;;;;8.27;2.90;;;;;;;;;;5009563;28;20038;-81
2022/04/12 11:24:12;;;;;;;7.25;3.17;;;;;;;;;;5005687;28;20038;-83
2022/04/12 11:26:46;;;;;;;5.53;3.13;;;;;;;;;;5010044;28;20084;-87
2022/04/12 11:29:20;;;;;;;5.82;3.00;;;;;;;;;;5012354;28;20041;-78
2022/04/12 11:31:50;;;;;;;6.35;3.75;;;;;;;;;;5005690;28;20033;-81
2022/04/12 11:34:17;;;;;;;6.95;3.30;;;;;;;;;;5010911;28;20041;-84
2022/04/12 11:36:55;;;;;;;6.50;3.53;;;;;;;;;;5013309;28;20576;-82
2022/04/12 11:39:23;;;;;;;4.85;2.90;;;;;;;;;;5012511;28;20026;-85
2022/04/12 11:41:48;;;;;;;7.10;3.50;;;;;;;;;;5010121;28;20033;-80
2022/04/12 11:44:14;;;;;;;6.50;3.25;;;;;;;;;;5012536;28;20185;-80
2022/04/12 11:46:39;;;;;;;5.65;2.97;;;;;;;;;;5009837;28;20029;-82
2022/04/12 11:49:12;;;;;;;5.25;2.75;;;;;;;;;;5011525;28;20045;-84
2022/04/12 11:51:48;;;;;;;5.22;3.00;;;;;;;;;;5011999;28;20029;-86
2022/04/12 11:54:28;;;;;;;5.00;3.00;;;;;;;;;;5011383;28;20498;-83
2022/04/12 11:57:04;;;;;;;5.70;2.92;;;;;;;;;;5011768;28;20096;-80
2022/04/12 11:59:35;;;;;;;4.05;2.60;;;;;;;;;;5008446;28;20029;-78
2022/04/12 12:02:02;;;;;;;8.00;3.10;;;;;;;;;;5009246;28;20044;-85
2022/04/12 12:04:36;;;;;;;5.55;3.00;;;;;;;;;;5010332;28;20107;-81
2022/04/12 12:07:07;;;;;;;5.57;2.88;;;;;;;;;;5008553;28;20034;-79
2022/04/12 12:09:34;;;;;;;5.47;2.95;;;;;;;;;;5026079;28;20167;-84
2022/04/12 12:12:07;;;;;;;5.15;2.80;;;;;;;;;;5012675;28;20354;-84
2022/04/12 12:14:33;;;;;;;4.50;2.53;;;;;;;;;;5009387;28;20075;-84
2022/04/12 12:17:10;;;;;;;5.15;2.90;;;;;;;;;;5013188;28;20529;-83
2022/04/12 12:19:40;;;;;;;4.85;2.78;;;;;;;;;;5010770;28;20025;-80
2022/04/12 12:22:10;;;;;;;7.28;3.10;;;;;;;;;;5008648;28;20033;-78
2022/04/12 12:24:53;;;;;;;4.38;2.65;;;;;;;;;;5008992;28;20022;-85
2022/04/12 12:27:30;;;;;;;5.82;2.65;;;;;;;;;;5012097;28;20036;-82
2022/04/12 12:30:04;;;;;;;4.95;2.70;;;;;;;;;;5010839;28;20083;-79
2022/04/12 12:32:38;;;;;;;5.63;2.33;;;;;;;;;;5009419;28;20037;-78
2022/04/12 12:35:15;;;;;;;4.18;2.17;;;;;;;;;;5007619;28;20018;-82
2022/04/12 12:37:42;;;;;;;4.68;1.88;;;;;;;;;;5010826;28;20026;-85
2022/04/12 12:40:23;;;;;;;4.35;2.13;;;;;;;;;;5011458;28;20033;-87
2022/04/12 12:42:50;;;;;;;6.10;2.17;;;;;;;;;;5010668;28;20418;-82
2022/04/12 12:45:18;;;;;;;4.57;2.20;;;;;;;;;;5010159;28;20152;-78
2022/04/12 12:47:47;;;;;;;4.07;2.00;;;;;;;;;;5011942;28;20054;-80
2022/04/12 12:50:14;;;;;;;4.13;2.22;;;;;;;;;;5012118;28;20033;-78
2022/04/12 12:52:41;;;;;;;4.18;2.50;;;;;;;;;;5011709;28;20029;-86
2022/04/12 12:55:08;;;;;;;4.28;2.20;;;;;;;;;;5012422;28;20029;-84
2022/04/12 12:57:48;;;;;;;6.13;2.47;;;;;;;;;;5011736;28;20418;-90
2022/04/12 13:00:15;;;;;;;6.05;2.08;;;;;;;;;;5007678;28;20057;-79
2022/04/12 13:02:41;;;;;;;6.43;2.90;;;;;;;;;;5007224;28;20512;-81
2022/04/12 13:05:09;;;;;;;5.35;2.35;;;;;;;;;;5010971;28;20018;-80
2022/04/12 13:07:36;;;;;;;5.53;2.58;;;;;;;;;;5010804;28;20029;-78
2022/04/12 13:10:16;;;;;;;6.95;2.70;;;;;;;;;;5008733;28;20035;-79
2022/04/12 13:12:43;;;;;;;5.78;2.90;;;;;;;;;;5012466;28;20038;-86
2022/04/12 13:15:13;;;;;;;5.43;2.50;;;;;;;;;;5009892;28;20022;-83
2022/04/12 13:17:39;;;;;;;4.25;2.47;;;;;;;;;;5008162;28;20370;-86
2022/04/12 13:20:08;;;;;;;5.32;2.47;;;;;;;;;;5009852;28;20037;-80
2022/04/12 13:22:33;;;;;;;4.57;2.58;;;;;;;;;;5003833;28;20037;-87
2022/04/12 13:25:00;;;;;;;6.13;2.75;;;;;;;;;;5010811;28;20030;-87
2022/04/12 13:27:26;;;;;;;4.53;2.70;;;;;;;;;;5010203;28;20029;-79
2022/04/12 13:29:54;;;;;;;5.13;2.53;;;;;;;;;;5008718;28;20118;-85
2022/04/12 13:32:20;;;;;;;5.47;2.50;;;;;;;;;;5007154;28;20041;-85
2022/04/12 13:34:45;;;;;;;5.40;2.40;;;;;;;;;;5005910;28;20455;-86
2022/04/12 13:37:11;;;;;;;5.40;2.70;;;;;;;;;;4998146;28;20368;-82
2022/04/12 13:39:36;;;;;;;5.70;2.60;;;;;;;;;;5003737;28;20037;-80
2022/04/12 13:42:05;;;;;;;4.85;2.53;;;;;;;;;;5005268;28;20041;-80
2022/04/12 13:44:34;;;;;;;6.32;3.30;;;;;;;;;;5003103;28;20667;-85
2022/04/12 13:47:04;;;;;;;5.60;2.65;;;;;;;;;;5019632;28;20537;-81
2022/04/12 13:49:30;;;;;;;5.13;2.40;;;;;;;;;;5002664;28;20508;-81
2022/04/12 13:51:57;;;;;;;4.40;2.47;;;;;;;;;;5000571;28;20021;-86
2022/04/12 13:54:23;;;;;;;5.47;2.80;;;;;;;;;;5003833;28;20029;-86
2022/04/12 13:56:49;;;;;;;6.15;2.72;;;;;;;;;;5004344;28;20026;-81
2022/04/12 13:59:14;;;;;;;5.60;2.70;;;;;;;;;;5005569;28;20361;-85
2022/04/12 14:01:40;;;;;;;4.60;2.90;;;;;;;;;;5003492;28;20036;-85
2022/04/12 14:04:08;;;;;;;5.78;2.78;;;;;;;;;;5005775;28;20079;-83
2022/04/12 14:06:34;;;;;;;4.63;3.00;;;;;;;;;;4986495;28;20136;-87
2022/04/12 14:09:00;;;;;;;7.05;2.90;;;;;;;;;;5003865;28;20137;-86
2022/04/12 14:11:25;;;;;;;5.03;3.10;;;;;;;;;;5001585;28;20573;-82
2022/04/12 14:13:51;;;;;;;7.47;2.97;;;;;;;;;;5001915;28;20358;-83
2022/04/12 14:16:16;;;;;;;5.57;3.10;;;;;;;;;;5003947;28;20124;-86
2022/04/12 14:18:42;;;;;;;5.72;3.22;;;;;;;;;;5008474;28;20077;-81
2022/04/12 14:21:10;;;;;;;5.47;3.47;;;;;;;;;;5005160;28;20026;-82
2022/04/12 14:23:38;;;;;;;5.55;3.20;;;;;;;;;;5011104;28;20485;-81
2022/04/12 14:26:05;;;;;;;7.43;3.08;;;;;;;;;;5007255;28;20061;-81
2022/04/12 14:28:36;;;;;;;5.30;3.15;;;;;;;;;;5006014;28;20482;-82
2022/04/12 14:31:02;;;;;;;7.78;3.53;;;;;;;;;;5005884;28;20045;-80
2022/04/12 14:33:28;;;;;;;7.60;3.80;;;;;;;;;;5004640;28;20037;-85
2022/04/12 14:35:54;;;;;;;7.30;3.92;;;;;;;;;;5009982;28;20033;-85
2022/04/12 14:38:23;;;;;;;6.50;3.42;;;;;;;;;;5007647;28;20421;-81
2022/04/12 14:40:54;;;;;;;5.78;3.65;;;;;;;;;;5004725;28;20022;-80
2022/04/12 14:43:20;;;;;;;6.93;3.67;;;;;;;;;;5004770;28;20074;-82
2022/04/12 14:45:46;;;;;;;5.75;3.50;;;;;;;;;;5000714;28;20567;-86
2022/04/12 14:48:12;;;;;;;7.00;3.70;;;;;;;;;;5006709;28;20026;-83